createdAt,value
2018-01-22T00:00:40.367Z,0
2018-01-22T00:01:40.588Z,0
2018-01-22T00:02:40.309Z,0
2018-01-22T00:03:40.521Z,0
2018-01-22T00:04:40.496Z,0
2018-01-22T00:05:40.217Z,0
2018-01-22T00:06:40.182Z,0
2018-01-22T00:07:40.195Z,0
2018-01-22T00:08:40.374Z,0
2018-01-22T00:09:39.855Z,0
2018-01-22T00:10:40.316Z,0
2018-01-22T00:11:39.795Z,0
2018-01-22T00:12:40.256Z,0
2018-01-22T00:13:40.044Z,0
2018-01-22T00:14:40.014Z,0
2018-01-22T00:15:40.179Z,0
2018-01-22T00:16:39.897Z,0
2018-01-22T00:17:39.859Z,0
2018-01-22T00:18:39.342Z,0
2018-01-22T00:19:40.054Z,0
2018-01-22T00:20:40.068Z,0
2018-01-22T00:21:39.993Z,0
2018-01-22T00:22:39.970Z,0
2018-01-22T00:23:39.681Z,0
2018-01-22T00:24:39.657Z,0
2018-01-22T00:25:39.619Z,0
2018-01-22T00:26:39.598Z,0
2018-01-22T00:27:39.808Z,0
2018-01-22T00:28:39.791Z,0
2018-01-22T00:29:39.259Z,0
2018-01-22T00:30:39.724Z,0
2018-01-22T00:31:39.444Z,0
2018-01-22T00:32:39.662Z,0
2018-01-22T00:33:39.389Z,0
2018-01-22T00:34:39.351Z,0
2018-01-22T00:35:39.570Z,0
2018-01-22T00:36:39.640Z,0
2018-01-22T00:37:39.257Z,0
2018-01-22T00:38:39.235Z,0
2018-01-22T00:39:39.201Z,0
2018-01-22T00:40:39.481Z,0
2018-01-22T00:41:39.385Z,0
2018-01-22T00:42:39.366Z,0
2018-01-22T00:43:39.091Z,0
2018-01-22T00:44:39.298Z,0
2018-01-22T00:45:39.265Z,0
2018-01-22T00:46:39.237Z,0
2018-01-22T00:47:39.205Z,0
2018-01-22T00:48:39.183Z,0
2018-01-22T00:49:39.146Z,0
2018-01-22T00:50:38.881Z,0
2018-01-22T00:51:39.089Z,0
2018-01-22T00:52:38.563Z,0
2018-01-22T00:53:38.538Z,0
2018-01-22T00:54:38.502Z,0
2018-01-22T00:55:38.723Z,0
2018-01-22T00:56:38.947Z,0
2018-01-22T00:57:38.899Z,0
2018-01-22T00:58:38.383Z,0
2018-01-22T00:59:38.847Z,0
2018-01-22T01:00:38.865Z,0
2018-01-22T01:01:38.046Z,0
2018-01-22T01:02:38.752Z,0
2018-01-22T01:03:38.730Z,0
2018-01-22T01:04:38.444Z,0
2018-01-22T01:05:38.664Z,0
2018-01-22T01:06:38.640Z,0
2018-01-22T01:07:38.605Z,0
2018-01-22T01:08:38.330Z,0
2018-01-22T01:09:38.047Z,0
2018-01-22T01:10:38.519Z,0
2018-01-22T01:11:38.237Z,0
2018-01-22T01:12:38.458Z,0
2018-01-22T01:13:37.932Z,0
2018-01-22T01:14:37.900Z,0
2018-01-22T01:15:37.881Z,0
2018-01-22T01:16:38.090Z,0
2018-01-22T01:17:38.052Z,0
2018-01-22T01:18:38.272Z,0
2018-01-22T01:19:38.045Z,0
2018-01-22T01:20:38.233Z,0
2018-01-22T01:21:37.934Z,0
2018-01-22T01:22:37.908Z,0
2018-01-22T01:23:38.110Z,0
2018-01-22T01:24:38.098Z,0
2018-01-22T01:25:38.060Z,0
2018-01-22T01:26:38.028Z,0
2018-01-22T01:27:37.999Z,0
2018-01-22T01:28:37.723Z,0
2018-01-22T01:29:37.691Z,0
2018-01-22T01:30:37.661Z,0
2018-01-22T01:31:37.889Z,0
2018-01-22T01:32:37.603Z,0
2018-01-22T01:33:37.578Z,0
2018-01-22T01:34:37.791Z,0
2018-01-22T01:35:37.756Z,0
2018-01-22T01:36:37.719Z,0
2018-01-22T01:37:37.218Z,0
2018-01-22T01:38:37.692Z,0
2018-01-22T01:39:37.389Z,0
2018-01-22T01:40:37.602Z,0
2018-01-22T01:41:37.578Z,0
2018-01-22T01:42:37.340Z,0
2018-01-22T01:43:37.271Z,0
2018-01-22T01:44:36.989Z,0
2018-01-22T01:45:37.452Z,0
2018-01-22T01:46:37.435Z,0
2018-01-22T01:47:37.150Z,0
2018-01-22T01:48:37.361Z,0
2018-01-22T01:49:37.339Z,0
2018-01-22T01:50:37.301Z,0
2018-01-22T01:51:36.796Z,0
2018-01-22T01:52:36.749Z,0
2018-01-22T01:53:37.213Z,0
2018-01-22T01:54:36.948Z,0
2018-01-22T01:55:36.658Z,0
2018-01-22T01:56:37.118Z,0
2018-01-22T01:57:36.598Z,0
2018-01-22T01:58:36.815Z,0
2018-01-22T01:59:36.787Z,0
2018-01-22T02:00:36.755Z,0
2018-01-22T02:01:36.484Z,0
2018-01-22T02:02:36.703Z,0
2018-01-22T02:03:36.665Z,0
2018-01-22T02:04:36.638Z,0
2018-01-22T02:05:36.853Z,0
2018-01-22T02:06:36.325Z,0
2018-01-22T02:07:36.545Z,0
2018-01-22T02:08:36.761Z,0
2018-01-22T02:09:36.495Z,0
2018-01-22T02:10:36.702Z,0
2018-01-22T02:11:36.183Z,0
2018-01-22T02:12:36.643Z,0
2018-01-22T02:13:36.361Z,0
2018-01-22T02:14:36.336Z,0
2018-01-22T02:15:36.320Z,0
2018-01-22T02:16:36.272Z,0
2018-01-22T02:17:36.251Z,0
2018-01-22T02:18:36.226Z,0
2018-01-22T02:19:36.441Z,0
2018-01-22T02:20:36.397Z,0
2018-01-22T02:21:35.638Z,0
2018-01-22T02:22:36.367Z,0
2018-01-22T02:23:36.312Z,0
2018-01-22T02:24:36.282Z,0
2018-01-22T02:25:36.264Z,0
2018-01-22T02:26:36.242Z,0
2018-01-22T02:27:35.943Z,0
2018-01-22T02:28:35.919Z,0
2018-01-22T02:29:35.929Z,0
2018-01-22T02:30:35.861Z,0
2018-01-22T02:31:35.830Z,0
2018-01-22T02:32:36.052Z,0
2018-01-22T02:33:36.081Z,0
2018-01-22T02:34:35.990Z,0
2018-01-22T02:35:35.971Z,0
2018-01-22T02:36:35.682Z,0
2018-01-22T02:37:35.949Z,0
2018-01-22T02:38:35.880Z,0
2018-01-22T02:39:35.592Z,0
2018-01-22T02:40:35.800Z,0
2018-01-22T02:41:35.782Z,0
2018-01-22T02:42:35.753Z,0
2018-01-22T02:43:35.717Z,0
2018-01-22T02:44:35.738Z,0
2018-01-22T02:45:35.408Z,0
2018-01-22T02:46:35.633Z,0
2018-01-22T02:47:35.596Z,0
2018-01-22T02:48:35.080Z,0
2018-01-22T02:49:35.545Z,0
2018-01-22T02:50:35.269Z,0
2018-01-22T02:51:35.496Z,0
2018-01-22T02:52:35.461Z,0
2018-01-22T02:53:35.424Z,0
2018-01-22T02:54:35.148Z,0
2018-01-22T02:55:35.365Z,0
2018-01-22T02:56:35.332Z,0
2018-01-22T02:57:35.303Z,0
2018-01-22T02:58:35.026Z,0
2018-01-22T02:59:35.349Z,0
2018-01-22T03:00:34.970Z,0
2018-01-22T03:01:35.182Z,0
2018-01-22T03:02:34.909Z,0
2018-01-22T03:03:35.126Z,0
2018-01-22T03:04:35.106Z,0
2018-01-22T03:05:35.070Z,0
2018-01-22T03:06:35.038Z,0
2018-01-22T03:07:34.514Z,0
2018-01-22T03:08:34.730Z,0
2018-01-22T03:09:34.453Z,0
2018-01-22T03:10:34.939Z,0
2018-01-22T03:11:35.963Z,0
2018-01-22T03:12:34.858Z,0
2018-01-22T03:13:34.335Z,0
2018-01-22T03:14:35.095Z,0
2018-01-22T03:15:34.774Z,0
2018-01-22T03:16:34.740Z,0
2018-01-22T03:17:34.712Z,0
2018-01-22T03:18:34.185Z,0
2018-01-22T03:19:34.647Z,0
2018-01-22T03:20:34.630Z,0
2018-01-22T03:21:34.587Z,0
2018-01-22T03:22:34.318Z,0
2018-01-22T03:23:34.292Z,0
2018-01-22T03:24:34.255Z,0
2018-01-22T03:25:34.227Z,0
2018-01-22T03:26:34.249Z,0
2018-01-22T03:27:34.180Z,0
2018-01-22T03:28:34.141Z,0
2018-01-22T03:29:34.463Z,0
2018-01-22T03:30:34.414Z,0
2018-01-22T03:31:34.304Z,0
2018-01-22T03:32:34.027Z,0
2018-01-22T03:33:33.498Z,0
2018-01-22T03:34:33.472Z,0
2018-01-22T03:35:33.940Z,0
2018-01-22T03:36:34.156Z,0
2018-01-22T03:37:34.117Z,0
2018-01-22T03:38:33.854Z,0
2018-01-22T03:39:33.817Z,0
2018-01-22T03:40:33.783Z,0
2018-01-22T03:41:33.754Z,0
2018-01-22T03:42:33.732Z,0
2018-01-22T03:43:33.946Z,0
2018-01-22T03:44:33.675Z,0
2018-01-22T03:45:33.881Z,0
2018-01-22T03:46:33.856Z,0
2018-01-22T03:47:33.825Z,0
2018-01-22T03:48:33.303Z,0
2018-01-22T03:49:33.275Z,0
2018-01-22T03:50:33.737Z,0
2018-01-22T03:51:33.705Z,0
2018-01-22T03:52:33.434Z,0
2018-01-22T03:53:33.647Z,0
2018-01-22T03:54:33.379Z,0
2018-01-22T03:55:33.095Z,0
2018-01-22T03:56:33.567Z,0
2018-01-22T03:57:33.533Z,0
2018-01-22T03:58:33.312Z,0
2018-01-22T03:59:33.476Z,0
2018-01-22T04:00:33.442Z,0
2018-01-22T04:01:33.416Z,0
2018-01-22T04:02:33.384Z,0
2018-01-22T04:03:33.353Z,0
2018-01-22T04:04:33.077Z,0
2018-01-22T04:05:33.291Z,0
2018-01-22T04:06:33.268Z,0
2018-01-22T04:07:33.238Z,0
2018-01-22T04:08:32.959Z,0
2018-01-22T04:09:32.938Z,0
2018-01-22T04:10:33.156Z,0
2018-01-22T04:11:33.130Z,0
2018-01-22T04:12:33.144Z,0
2018-01-22T04:13:32.819Z,0
2018-01-22T04:14:33.035Z,0
2018-01-22T04:15:32.764Z,0
2018-01-22T04:16:32.978Z,0
2018-01-22T04:17:33.030Z,0
2018-01-22T04:18:32.925Z,0
2018-01-22T04:19:32.632Z,0
2018-01-22T04:20:32.856Z,0
2018-01-22T04:21:32.826Z,0
2018-01-22T04:22:32.795Z,0
2018-01-22T04:23:32.518Z,0
2018-01-22T04:24:31.997Z,0
2018-01-22T04:25:32.702Z,0
2018-01-22T04:26:32.673Z,0
2018-01-22T04:27:32.654Z,0
2018-01-22T04:28:32.383Z,0
2018-01-22T04:29:32.590Z,0
2018-01-22T04:30:32.564Z,0
2018-01-22T04:31:32.042Z,0
2018-01-22T04:32:32.500Z,0
2018-01-22T04:33:32.231Z,0
2018-01-22T04:34:32.196Z,0
2018-01-22T04:35:32.168Z,0
2018-01-22T04:36:32.394Z,0
2018-01-22T04:37:32.111Z,0
2018-01-22T04:38:31.841Z,0
2018-01-22T04:39:32.052Z,0
2018-01-22T04:40:32.272Z,0
2018-01-22T04:41:32.242Z,0
2018-01-22T04:42:32.216Z,0
2018-01-22T04:43:31.940Z,0
2018-01-22T04:44:32.155Z,0
2018-01-22T04:45:32.125Z,0
2018-01-22T04:46:32.096Z,0
2018-01-22T04:47:31.823Z,0
2018-01-22T04:48:31.826Z,0
2018-01-22T04:49:31.513Z,0
2018-01-22T04:50:31.991Z,0
2018-01-22T04:51:31.454Z,0
2018-01-22T04:52:31.670Z,0
2018-01-22T04:53:31.894Z,0
2018-01-22T04:54:31.613Z,0
2018-01-22T04:55:31.829Z,0
2018-01-22T04:56:31.555Z,0
2018-01-22T04:57:31.773Z,0
2018-01-22T04:58:31.253Z,0
2018-01-22T04:59:31.468Z,0
2018-01-22T05:00:31.687Z,0
2018-01-22T05:01:31.414Z,0
2018-01-22T05:02:31.377Z,0
2018-01-22T05:03:31.598Z,0
2018-01-22T05:04:31.340Z,0
2018-01-22T05:05:31.298Z,0
2018-01-22T05:06:31.265Z,0
2018-01-22T05:07:31.232Z,0
2018-01-22T05:08:30.964Z,0
2018-01-22T05:09:31.176Z,0
2018-01-22T05:10:31.145Z,0
2018-01-22T05:11:30.876Z,0
2018-01-22T05:12:31.083Z,0
2018-01-22T05:13:31.320Z,0
2018-01-22T05:14:31.025Z,0
2018-01-22T05:15:31.248Z,0
2018-01-22T05:16:30.972Z,0
2018-01-22T05:17:31.216Z,0
2018-01-22T05:18:30.717Z,0
2018-01-22T05:19:31.131Z,0
2018-01-22T05:20:31.097Z,0
2018-01-22T05:21:31.069Z,0
2018-01-22T05:22:30.803Z,0
2018-01-22T05:23:31.013Z,0
2018-01-22T05:24:30.741Z,0
2018-01-22T05:25:31.025Z,0
2018-01-22T05:26:30.688Z,0
2018-01-22T05:27:30.896Z,0
2018-01-22T05:28:30.627Z,0
2018-01-22T05:29:30.835Z,0
2018-01-22T05:30:30.819Z,0
2018-01-22T05:31:30.788Z,0
2018-01-22T05:32:30.753Z,0
2018-01-22T05:33:30.480Z,0
2018-01-22T05:34:30.698Z,0
2018-01-22T05:35:30.672Z,0
2018-01-22T05:36:30.637Z,0
2018-01-22T05:37:30.612Z,0
2018-01-22T05:38:30.575Z,0
2018-01-22T05:39:30.557Z,0
2018-01-22T05:40:30.280Z,0
2018-01-22T05:41:30.253Z,0
2018-01-22T05:42:30.465Z,0
2018-01-22T05:43:30.191Z,0
2018-01-22T05:44:30.167Z,0
2018-01-22T05:45:30.376Z,0
2018-01-22T05:46:30.354Z,0
2018-01-22T05:47:30.320Z,0
2018-01-22T05:48:30.044Z,0
2018-01-22T05:49:29.773Z,0
2018-01-22T05:50:30.007Z,0
2018-01-22T05:51:29.964Z,0
2018-01-22T05:52:30.180Z,0
2018-01-22T05:53:30.154Z,0
2018-01-22T05:54:29.926Z,0
2018-01-22T05:55:30.103Z,0
2018-01-22T05:56:29.818Z,0
2018-01-22T05:57:29.787Z,0
2018-01-22T05:58:30.006Z,0
2018-01-22T05:59:29.975Z,0
2018-01-22T06:00:29.958Z,0
2018-01-22T06:01:29.931Z,0
2018-01-22T06:02:29.660Z,0
2018-01-22T06:03:29.859Z,0
2018-01-22T06:04:29.578Z,0
2018-01-22T06:05:29.555Z,0
2018-01-22T06:06:29.778Z,0
2018-01-22T06:07:30.110Z,0
2018-01-22T06:08:29.480Z,0
2018-01-22T06:09:29.443Z,0
2018-01-22T06:10:29.657Z,0
2018-01-22T06:11:29.388Z,0
2018-01-22T06:12:29.356Z,0
2018-01-22T06:13:29.572Z,0
2018-01-22T06:14:29.303Z,0
2018-01-22T06:15:29.590Z,0
2018-01-22T06:16:29.490Z,0
2018-01-22T06:17:29.455Z,0
2018-01-22T06:18:29.189Z,0
2018-01-22T06:19:29.402Z,0
2018-01-22T06:20:29.373Z,0
2018-01-22T06:21:29.342Z,0
2018-01-22T06:22:29.412Z,0
2018-01-22T06:23:28.801Z,0
2018-01-22T06:24:29.255Z,0
2018-01-22T06:25:29.228Z,0
2018-01-22T06:26:29.202Z,0
2018-01-22T06:27:29.177Z,0
2018-01-22T06:28:28.653Z,0
2018-01-22T06:29:29.124Z,0
2018-01-22T06:30:28.838Z,0
2018-01-22T06:31:29.066Z,0
2018-01-22T06:32:29.032Z,0
2018-01-22T06:33:29.000Z,0
2018-01-22T06:34:28.722Z,0
2018-01-22T06:35:28.815Z,0
2018-01-22T06:36:29.181Z,0
2018-01-22T06:37:28.882Z,0
2018-01-22T06:38:28.853Z,0
2018-01-22T06:39:28.577Z,0
2018-01-22T06:40:28.306Z,0
2018-01-22T06:41:28.532Z,0
2018-01-22T06:42:28.255Z,0
2018-01-22T06:43:28.467Z,0
2018-01-22T06:44:28.690Z,0
2018-01-22T06:45:28.406Z,0
2018-01-22T06:46:28.629Z,0
2018-01-22T06:47:28.345Z,0
2018-01-22T06:48:28.323Z,0
2018-01-22T06:49:28.536Z,0
2018-01-22T06:50:28.021Z,0
2018-01-22T06:51:28.484Z,0
2018-01-22T06:52:28.458Z,0
2018-01-22T06:53:28.184Z,0
2018-01-22T06:54:27.900Z,0
2018-01-22T06:55:28.117Z,0
2018-01-22T06:56:27.843Z,0
2018-01-22T06:57:28.064Z,0
2018-01-22T06:58:28.040Z,0
2018-01-22T06:59:28.259Z,0
2018-01-22T07:00:27.980Z,0
2018-01-22T07:01:27.959Z,0
2018-01-22T07:02:27.918Z,0
2018-01-22T07:03:28.772Z,0
2018-01-22T07:04:28.770Z,0
2018-01-22T07:05:27.838Z,0
2018-01-22T07:06:27.804Z,0
2018-01-22T07:07:27.778Z,0
2018-01-22T07:08:27.852Z,0
2018-01-22T07:09:27.227Z,0
2018-01-22T07:10:27.749Z,0
2018-01-22T07:11:27.669Z,0
2018-01-22T07:12:27.642Z,0
2018-01-22T07:13:27.620Z,0
2018-01-22T07:14:27.331Z,0
2018-01-22T07:15:28.541Z,0
2018-01-22T07:16:27.276Z,0
2018-01-22T07:17:27.492Z,0
2018-01-22T07:18:27.466Z,0
2018-01-22T07:19:27.194Z,0
2018-01-22T07:20:27.405Z,0
2018-01-22T07:21:27.374Z,5
2018-01-22T07:22:27.344Z,5
2018-01-22T07:23:27.639Z,5
2018-01-22T07:24:27.534Z,5
2018-01-22T07:25:27.510Z,5
2018-01-22T07:26:27.480Z,5
2018-01-22T07:27:27.467Z,5
2018-01-22T07:28:27.491Z,5
2018-01-22T07:29:27.968Z,5
2018-01-22T07:30:27.373Z,5
2018-01-22T07:31:26.854Z,5
2018-01-22T07:32:27.065Z,10
2018-01-22T07:33:27.041Z,10
2018-01-22T07:34:26.518Z,10
2018-01-22T07:35:27.225Z,10
2018-01-22T07:36:27.202Z,10
2018-01-22T07:37:26.930Z,10
2018-01-22T07:38:26.658Z,10
2018-01-22T07:39:27.115Z,10
2018-01-22T07:40:27.095Z,10
2018-01-22T07:41:27.056Z,10
2018-01-22T07:42:27.026Z,10
2018-01-22T07:43:26.762Z,15
2018-01-22T07:44:26.984Z,15
2018-01-22T07:45:26.944Z,15
2018-01-22T07:46:26.673Z,15
2018-01-22T07:47:26.639Z,15
2018-01-22T07:48:26.866Z,15
2018-01-22T07:49:26.342Z,15
2018-01-22T07:50:26.802Z,15
2018-01-22T07:51:26.777Z,15
2018-01-22T07:52:26.757Z,15
2018-01-22T07:53:26.478Z,15
2018-01-22T07:54:26.447Z,20
2018-01-22T07:55:26.666Z,20
2018-01-22T07:56:26.636Z,20
2018-01-22T07:57:29.136Z,25
2018-01-22T07:58:26.594Z,25
2018-01-22T07:59:26.691Z,30
2018-01-22T08:00:26.754Z,30
2018-01-22T08:01:28.995Z,30
2018-01-22T08:02:28.911Z,25
2018-01-22T08:03:26.629Z,25
2018-01-22T08:04:28.704Z,25
2018-01-22T08:05:26.142Z,25
2018-01-22T08:06:26.165Z,25
2018-01-22T08:07:26.419Z,25
2018-01-22T08:08:26.903Z,30
2018-01-22T08:09:28.015Z,30
2018-01-22T08:10:26.248Z,35
2018-01-22T08:11:26.059Z,35
2018-01-22T08:12:25.942Z,30
2018-01-22T08:13:25.918Z,35
2018-01-22T08:14:25.397Z,35
2018-01-22T08:15:25.866Z,35
2018-01-22T08:16:26.102Z,40
2018-01-22T08:17:25.855Z,40
2018-01-22T08:18:26.071Z,40
2018-01-22T08:19:26.006Z,45
2018-01-22T08:20:25.968Z,40
2018-01-22T08:21:25.693Z,40
2018-01-22T08:22:25.686Z,50
2018-01-22T08:23:25.889Z,50
2018-01-22T08:24:25.856Z,55
2018-01-22T08:25:25.435Z,60
2018-01-22T08:26:25.796Z,55
2018-01-22T08:27:25.822Z,55
2018-01-22T08:28:25.811Z,60
2018-01-22T08:29:25.466Z,60
2018-01-22T08:30:25.444Z,60
2018-01-22T08:31:25.656Z,65
2018-01-22T08:32:25.627Z,70
2018-01-22T08:33:25.610Z,70
2018-01-22T08:34:25.364Z,70
2018-01-22T08:35:25.735Z,70
2018-01-22T08:36:25.519Z,65
2018-01-22T08:37:25.501Z,60
2018-01-22T08:38:24.972Z,60
2018-01-22T08:39:25.442Z,60
2018-01-22T08:40:25.412Z,65
2018-01-22T08:41:25.143Z,65
2018-01-22T08:42:25.125Z,65
2018-01-22T08:43:25.088Z,65
2018-01-22T08:44:25.316Z,65
2018-01-22T08:45:25.031Z,60
2018-01-22T08:46:25.261Z,65
2018-01-22T08:47:24.992Z,60
2018-01-22T08:48:24.943Z,60
2018-01-22T08:49:25.160Z,60
2018-01-22T08:50:24.897Z,60
2018-01-22T08:51:25.116Z,65
2018-01-22T08:52:25.085Z,60
2018-01-22T08:53:24.820Z,60
2018-01-22T08:54:25.028Z,50
2018-01-22T08:55:25.099Z,45
2018-01-22T08:56:24.979Z,45
2018-01-22T08:57:24.755Z,55
2018-01-22T08:58:24.673Z,60
2018-01-22T08:59:24.951Z,60
2018-01-22T09:00:25.711Z,55
2018-01-22T09:01:24.742Z,65
2018-01-22T09:02:24.471Z,70
2018-01-22T09:03:24.785Z,70
2018-01-22T09:04:24.770Z,80
2018-01-22T09:05:24.240Z,80
2018-01-22T09:06:24.705Z,80
2018-01-22T09:07:24.672Z,90
2018-01-22T09:08:24.650Z,80
2018-01-22T09:09:24.621Z,90
2018-01-22T09:10:24.351Z,85
2018-01-22T09:11:24.571Z,85
2018-01-22T09:12:24.295Z,95
2018-01-22T09:13:25.113Z,95
2018-01-22T09:14:24.457Z,90
2018-01-22T09:15:24.464Z,100
2018-01-22T09:16:24.349Z,100
2018-01-22T09:17:23.955Z,105
2018-01-22T09:18:24.134Z,105
2018-01-22T09:19:24.238Z,100
2018-01-22T09:20:24.477Z,100
2018-01-22T09:21:25.397Z,105
2018-01-22T09:22:25.960Z,105
2018-01-22T09:23:24.339Z,100
2018-01-22T09:24:26.281Z,95
2018-01-22T09:25:24.883Z,105
2018-01-22T09:26:25.144Z,130
2018-01-22T09:27:25.115Z,135
2018-01-22T09:28:25.254Z,105
2018-01-22T09:29:24.639Z,125
2018-01-22T09:30:24.167Z,135
2018-01-22T09:31:23.351Z,140
2018-01-22T09:32:23.511Z,125
2018-01-22T09:33:23.990Z,105
2018-01-22T09:34:23.707Z,105
2018-01-22T09:35:24.014Z,90
2018-01-22T09:36:24.519Z,80
2018-01-22T09:37:23.889Z,85
2018-01-22T09:38:24.343Z,90
2018-01-22T09:39:24.001Z,90
2018-01-22T09:40:23.303Z,90
2018-01-22T09:41:23.526Z,70
2018-01-22T09:42:23.753Z,60
2018-01-22T09:43:23.215Z,50
2018-01-22T09:44:23.685Z,65
2018-01-22T09:45:23.406Z,80
2018-01-22T09:46:23.386Z,85
2018-01-22T09:47:23.607Z,65
2018-01-22T09:48:23.337Z,60
2018-01-22T09:49:23.301Z,60
2018-01-22T09:50:23.283Z,85
2018-01-22T09:51:23.490Z,125
2018-01-22T09:52:22.741Z,160
2018-01-22T09:53:23.450Z,200
2018-01-22T09:54:23.199Z,185
2018-01-22T09:55:23.400Z,140
2018-01-22T09:56:23.217Z,135
2018-01-22T09:57:23.346Z,190
2018-01-22T09:58:22.833Z,205
2018-01-22T09:59:23.041Z,255
2018-01-22T10:00:22.779Z,265
2018-01-22T10:01:23.347Z,195
2018-01-22T10:02:22.963Z,215
2018-01-22T10:03:22.936Z,145
2018-01-22T10:04:23.163Z,125
2018-01-22T10:05:23.152Z,120
2018-01-22T10:06:22.858Z,135
2018-01-22T10:07:23.096Z,155
2018-01-22T10:08:23.060Z,215
2018-01-22T10:09:23.035Z,210
2018-01-22T10:10:22.770Z,165
2018-01-22T10:11:22.982Z,110
2018-01-22T10:12:22.953Z,115
2018-01-22T10:13:23.162Z,165
2018-01-22T10:14:22.657Z,180
2018-01-22T10:15:22.652Z,205
2018-01-22T10:16:22.602Z,190
2018-01-22T10:17:22.579Z,155
2018-01-22T10:18:22.549Z,120
2018-01-22T10:19:22.526Z,100
2018-01-22T10:20:22.743Z,100
2018-01-22T10:21:22.223Z,100
2018-01-22T10:22:22.695Z,75
2018-01-22T10:23:22.472Z,70
2018-01-22T10:24:22.156Z,65
2018-01-22T10:25:22.378Z,55
2018-01-22T10:26:22.594Z,50
2018-01-22T10:27:22.566Z,60
2018-01-22T10:28:22.543Z,60
2018-01-22T10:29:22.312Z,60
2018-01-22T10:30:22.502Z,55
2018-01-22T10:31:22.219Z,60
2018-01-22T10:32:22.442Z,75
2018-01-22T10:33:22.414Z,85
2018-01-22T10:34:21.897Z,90
2018-01-22T10:35:22.151Z,95
2018-01-22T10:36:21.602Z,80
2018-01-22T10:37:22.308Z,75
2018-01-22T10:38:21.302Z,95
2018-01-22T10:39:22.018Z,115
2018-01-22T10:40:21.990Z,110
2018-01-22T10:41:22.224Z,110
2018-01-22T10:42:21.940Z,120
2018-01-22T10:43:21.909Z,115
2018-01-22T10:44:21.889Z,140
2018-01-22T10:45:21.862Z,155
2018-01-22T10:46:22.121Z,135
2018-01-22T10:47:21.921Z,160
2018-01-22T10:48:22.033Z,130
2018-01-22T10:49:22.048Z,125
2018-01-22T10:50:21.982Z,135
2018-01-22T10:51:21.954Z,165
2018-01-22T10:52:21.930Z,160
2018-01-22T10:53:21.895Z,190
2018-01-22T10:54:21.875Z,175
2018-01-22T10:55:21.604Z,165
2018-01-22T10:56:21.659Z,160
2018-01-22T10:57:22.191Z,175
2018-01-22T10:58:21.527Z,195
2018-01-22T10:59:21.533Z,120
2018-01-22T11:00:21.728Z,95
2018-01-22T11:01:21.459Z,100
2018-01-22T11:02:21.424Z,100
2018-01-22T11:03:21.404Z,125
2018-01-22T11:04:21.377Z,125
2018-01-22T11:05:21.352Z,130
2018-01-22T11:06:21.325Z,135
2018-01-22T11:07:21.301Z,180
2018-01-22T11:08:21.282Z,195
2018-01-22T11:09:21.251Z,255
2018-01-22T11:10:21.471Z,310
2018-01-22T11:11:21.172Z,315
2018-01-22T11:12:22.819Z,320
2018-01-22T11:13:25.110Z,320
2018-01-22T11:14:24.203Z,305
2018-01-22T11:15:21.096Z,310
2018-01-22T11:16:21.316Z,430
2018-01-22T11:17:21.301Z,445
2018-01-22T11:18:21.027Z,490
2018-01-22T11:19:21.242Z,485
2018-01-22T11:20:21.223Z,500
2018-01-22T11:21:20.952Z,550
2018-01-22T11:22:22.283Z,560
2018-01-22T11:23:21.150Z,545
2018-01-22T11:24:21.122Z,520
2018-01-22T11:25:21.269Z,525
2018-01-22T11:26:21.647Z,505
2018-01-22T11:27:20.552Z,475
2018-01-22T11:28:20.791Z,440
2018-01-22T11:29:20.595Z,420
2018-01-22T11:30:20.978Z,415
2018-01-22T11:31:20.949Z,415
2018-01-22T11:32:20.679Z,400
2018-01-22T11:33:20.666Z,390
2018-01-22T11:34:20.888Z,380
2018-01-22T11:35:20.861Z,375
2018-01-22T11:36:20.843Z,375
2018-01-22T11:37:20.562Z,390
2018-01-22T11:38:20.296Z,395
2018-01-22T11:39:21.756Z,395
2018-01-22T11:40:20.737Z,390
2018-01-22T11:41:20.223Z,410
2018-01-22T11:42:20.444Z,395
2018-01-22T11:43:20.663Z,435
2018-01-22T11:44:20.639Z,440
2018-01-22T11:45:20.617Z,470
2018-01-22T11:46:20.611Z,470
2018-01-22T11:47:20.578Z,470
2018-01-22T11:48:20.298Z,505
2018-01-22T11:49:20.523Z,550
2018-01-22T11:50:20.504Z,520
2018-01-22T11:51:20.230Z,490
2018-01-22T11:52:20.203Z,490
2018-01-22T11:53:20.437Z,470
2018-01-22T11:54:20.159Z,440
2018-01-22T11:55:20.390Z,485
2018-01-22T11:56:20.355Z,470
2018-01-22T11:57:20.090Z,430
2018-01-22T11:58:20.307Z,510
2018-01-22T11:59:19.794Z,505
2018-01-22T12:00:20.019Z,440
2018-01-22T12:01:20.050Z,350
2018-01-22T12:02:19.729Z,305
2018-01-22T12:03:20.195Z,270
2018-01-22T12:04:20.169Z,295
2018-01-22T12:05:19.900Z,380
2018-01-22T12:06:19.981Z,410
2018-01-22T12:07:19.612Z,430
2018-01-22T12:08:20.083Z,380
2018-01-22T12:09:20.254Z,370
2018-01-22T12:10:20.038Z,375
2018-01-22T12:11:20.007Z,385
2018-01-22T12:12:20.089Z,450
2018-01-22T12:13:19.718Z,425
2018-01-22T12:14:19.442Z,375
2018-01-22T12:15:19.919Z,305
2018-01-22T12:16:19.893Z,180
2018-01-22T12:17:19.622Z,165
2018-01-22T12:18:19.838Z,180
2018-01-22T12:19:19.329Z,145
2018-01-22T12:20:19.897Z,170
2018-01-22T12:21:19.594Z,180
2018-01-22T12:22:19.505Z,195
2018-01-22T12:23:19.475Z,235
2018-01-22T12:24:19.703Z,280
2018-01-22T12:25:19.677Z,325
2018-01-22T12:26:19.651Z,350
2018-01-22T12:27:19.748Z,360
2018-01-22T12:28:19.456Z,395
2018-01-22T12:29:19.582Z,455
2018-01-22T12:30:19.061Z,485
2018-01-22T12:31:19.290Z,405
2018-01-22T12:32:18.772Z,355
2018-01-22T12:33:19.247Z,330
2018-01-22T12:34:18.968Z,355
2018-01-22T12:35:19.192Z,430
2018-01-22T12:36:19.416Z,435
2018-01-22T12:37:19.139Z,350
2018-01-22T12:38:19.124Z,345
2018-01-22T12:39:18.845Z,265
2018-01-22T12:40:19.309Z,190
2018-01-22T12:41:19.290Z,140
2018-01-22T12:42:19.013Z,110
2018-01-22T12:43:19.238Z,120
2018-01-22T12:44:19.235Z,160
2018-01-22T12:45:18.953Z,175
2018-01-22T12:46:18.926Z,230
2018-01-22T12:47:19.145Z,185
2018-01-22T12:48:18.393Z,165
2018-01-22T12:49:19.090Z,200
2018-01-22T12:50:19.080Z,270
2018-01-22T12:51:19.046Z,405
2018-01-22T12:52:18.781Z,455
2018-01-22T12:53:19.082Z,480
2018-01-22T12:54:18.974Z,510
2018-01-22T12:55:18.949Z,470
2018-01-22T12:56:18.932Z,455
2018-01-22T12:57:18.902Z,435
2018-01-22T12:58:18.137Z,420
2018-01-22T12:59:18.360Z,425
2018-01-22T13:00:18.583Z,410
2018-01-22T13:01:19.930Z,370
2018-01-22T13:02:18.649Z,360
2018-01-22T13:03:19.841Z,340
2018-01-22T13:04:18.730Z,320
2018-01-22T13:05:18.715Z,370
2018-01-22T13:06:18.184Z,430
2018-01-22T13:07:18.412Z,405
2018-01-22T13:08:18.385Z,365
2018-01-22T13:09:18.603Z,360
2018-01-22T13:10:18.634Z,375
2018-01-22T13:11:18.560Z,390
2018-01-22T13:12:18.294Z,395
2018-01-22T13:13:18.505Z,390
2018-01-22T13:14:17.994Z,390
2018-01-22T13:15:18.462Z,410
2018-01-22T13:16:18.449Z,420
2018-01-22T13:17:18.418Z,420
2018-01-22T13:18:18.460Z,415
2018-01-22T13:19:17.884Z,415
2018-01-22T13:20:18.353Z,420
2018-01-22T13:21:17.829Z,430
2018-01-22T13:22:18.295Z,430
2018-01-22T13:23:18.024Z,415
2018-01-22T13:24:17.507Z,405
2018-01-22T13:25:18.269Z,395
2018-01-22T13:26:18.200Z,390
2018-01-22T13:27:17.678Z,385
2018-01-22T13:28:18.151Z,385
2018-01-22T13:29:17.874Z,375
2018-01-22T13:30:17.854Z,365
2018-01-22T13:31:18.076Z,360
2018-01-22T13:32:17.808Z,360
2018-01-22T13:33:17.787Z,350
2018-01-22T13:34:18.001Z,350
2018-01-22T13:35:17.982Z,335
2018-01-22T13:36:17.716Z,325
2018-01-22T13:37:17.686Z,310
2018-01-22T13:38:18.245Z,310
2018-01-22T13:39:17.885Z,315
2018-01-22T13:40:17.613Z,320
2018-01-22T13:41:17.868Z,325
2018-01-22T13:42:17.559Z,320
2018-01-22T13:43:17.785Z,320
2018-01-22T13:44:17.758Z,315
2018-01-22T13:45:17.745Z,305
2018-01-22T13:46:17.717Z,290
2018-01-22T13:47:17.528Z,285
2018-01-22T13:48:17.666Z,275
2018-01-22T13:49:17.799Z,280
2018-01-22T13:50:17.621Z,275
2018-01-22T13:51:17.099Z,275
2018-01-22T13:52:17.320Z,270
2018-01-22T13:53:17.549Z,265
2018-01-22T13:54:17.030Z,265
2018-01-22T13:55:17.505Z,265
2018-01-22T13:56:17.477Z,265
2018-01-22T13:57:17.447Z,255
2018-01-22T13:58:17.415Z,250
2018-01-22T13:59:17.397Z,250
2018-01-22T14:00:17.376Z,240
2018-01-22T14:01:17.102Z,235
2018-01-22T14:02:17.328Z,225
2018-01-22T14:03:17.299Z,220
2018-01-22T14:04:17.022Z,225
2018-01-22T14:05:16.512Z,225
2018-01-22T14:06:17.232Z,220
2018-01-22T14:07:17.211Z,220
2018-01-22T14:08:16.445Z,230
2018-01-22T14:09:16.912Z,245
2018-01-22T14:10:17.124Z,250
2018-01-22T14:11:17.854Z,250
2018-01-22T14:12:17.080Z,250
2018-01-22T14:13:16.806Z,245
2018-01-22T14:14:16.789Z,230
2018-01-22T14:15:17.008Z,215
2018-01-22T14:16:16.735Z,205
2018-01-22T14:17:16.762Z,195
2018-01-22T14:18:16.681Z,185
2018-01-22T14:19:16.180Z,180
2018-01-22T14:20:16.893Z,180
2018-01-22T14:21:16.610Z,170